Time;durP1;ratioP1;P1;durP2;ratioP2;P2;SDS_P1;SDS_P2;PMS_P1;PMS_P2;Temp;Humidity;BMP_temperature;BMP_pressure;BME280_temperature;BME280_humidity;BME280_pressure;Samples;Min_cycle;Max_cycle;Signal;HPM_P1;HPM_P2
2020/12/18 00:01:24;;;;;;;;;;;;;;;;;;4995141;28;19914;-44
2020/12/18 00:03:50;;;;;;;;;;;;;;;;;;4994570;28;20359;-43
2020/12/18 00:06:15;;;;;;;;;;;;;;;;;;4995232;28;20004;-44
2020/12/18 00:08:40;;;;;;;;;;;;;;;;;;4995266;28;20334;-43
2020/12/18 00:11:05;;;;;;;;;;;;;;;;;;4994645;28;19910;-44
2020/12/18 00:13:30;;;;;;;;;;;;;;;;;;4994887;28;20008;-44
2020/12/18 00:15:55;;;;;;;;;;;;;;;;;;4995047;28;20017;-44
2020/12/18 00:18:20;;;;;;;;;;;;;;;;;;4995137;28;20049;-43
2020/12/18 00:20:46;;;;;;;;;;;;;;;;;;4994876;28;19997;-45
2020/12/18 00:23:11;;;;;;;;;;;;;;;;;;4994793;28;19910;-43
2020/12/18 00:25:36;;;;;;;;;;;;;;;;;;4994280;28;19913;-44
2020/12/18 00:28:01;;;;;;;;;;;;;;;;;;4994930;28;19925;-43
2020/12/18 00:30:26;;;;;;;;;;;;;;;;;;4994613;28;19917;-44
2020/12/18 00:32:51;;;;;;;;;;;;;;;;;;4994540;28;20454;-45
2020/12/18 00:35:16;;;;;;;;;;;;;;;;;;4994673;28;20419;-43
2020/12/18 00:37:41;;;;;;;;;;;;;;;;;;4994881;28;20005;-44
2020/12/18 00:40:06;;;;;;;;;;;;;;;;;;4993200;28;19918;-43
2020/12/18 00:42:32;;;;;;;;;;;;;;;;;;4994365;28;19913;-45
2020/12/18 00:44:57;;;;;;;;;;;;;;;;;;4994436;28;19914;-43
2020/12/18 00:47:22;;;;;;;;;;;;;;;;;;4994677;28;20004;-44
2020/12/18 00:49:47;;;;;;;;;;;;;;;;;;4994678;28;19913;-44
2020/12/18 00:52:12;;;;;;;;;;;;;;;;;;4994443;28;20000;-43
2020/12/18 00:54:37;;;;;;;;;;;;;;;;;;4994458;28;20009;-43
2020/12/18 00:57:02;;;;;;;;;;;;;;;;;;4994043;28;20020;-43
2020/12/18 00:59:27;;;;;;;;;;;;;;;;;;4994197;28;19968;-43
2020/12/18 01:01:53;;;;;;;;;;;;;;;;;;4994103;28;19914;-44
2020/12/18 01:04:18;;;;;;;;;;;;;;;;;;4993625;28;20016;-46
2020/12/18 01:06:43;;;;;;;;;;;;;;;;;;4994079;28;19993;-44
2020/12/18 01:09:08;;;;;;;;;;;;;;;;;;4994147;28;20004;-45
2020/12/18 01:11:33;;;;;;;;;;;;;;;;;;4993569;28;20048;-44
2020/12/18 01:13:58;;;;;;;;;;;;;;;;;;4993879;28;20025;-44
2020/12/18 01:16:23;;;;;;;;;;;;;;;;;;4994458;28;20008;-43
2020/12/18 01:18:48;;;;;;;;;;;;;;;;;;4993968;28;20004;-41
2020/12/18 01:21:13;;;;;;;;;;;;;;;;;;4993896;28;20057;-44
2020/12/18 01:23:38;;;;;;;;;;;;;;;;;;4993803;28;19996;-45
2020/12/18 01:26:04;;;;;;;;;;;;;;;;;;4993310;28;20028;-44
2020/12/18 01:28:29;;;;;;;;;;;;;;;;;;4993839;28;19910;-44
2020/12/18 01:30:54;;;;;;;;;;;;;;;;;;4993456;28;19968;-43
2020/12/18 01:33:19;;;;;;;;;;;;;;;;;;4993765;28;20423;-44
2020/12/18 01:35:44;;;;;;;;;;;;;;;;;;4993605;28;19949;-43
2020/12/18 01:38:09;;;;;;;;;;;;;;;;;;4993929;28;19956;-44
2020/12/18 01:40:34;;;;;;;;;;;;;;;;;;4992998;28;20330;-45
2020/12/18 01:42:59;;;;;;;;;;;;;;;;;;4993428;28;19910;-45
2020/12/18 01:45:25;;;;;;;;;;;;;;;;;;4993360;28;19916;-45
2020/12/18 01:47:50;;;;;;;;;;;;;;;;;;4993622;28;20008;-43
2020/12/18 01:50:15;;;;;;;;;;;;;;;;;;4993282;28;20009;-46
2020/12/18 01:52:40;;;;;;;;;;;;;;;;;;4992968;28;19996;-44
2020/12/18 01:55:05;;;;;;;;;;;;;;;;;;4992775;28;20008;-44
2020/12/18 01:57:30;;;;;;;;;;;;;;;;;;4993321;28;19914;-43
2020/12/18 01:59:55;;;;;;;;;;;;;;;;;;4993050;28;20000;-44
2020/12/18 02:02:21;;;;;;;;;;;;;;;;;;4993071;28;19973;-44
2020/12/18 02:04:47;;;;;;;;;;;;;;;;;;4992634;28;20360;-44
2020/12/18 02:07:12;;;;;;;;;;;;;;;;;;4993005;28;20009;-44
2020/12/18 02:09:37;;;;;;;;;;;;;;;;;;4993104;28;19917;-44
2020/12/18 02:12:02;;;;;;;;;;;;;;;;;;4992285;28;19909;-43
2020/12/18 02:14:27;;;;;;;;;;;;;;;;;;4992835;28;20004;-44
2020/12/18 02:16:52;;;;;;;;;;;;;;;;;;4992818;28;20005;-43
2020/12/18 02:19:18;;;;;;;;;;;;;;;;;;4992853;28;20089;-44
2020/12/18 02:21:43;;;;;;;;;;;;;;;;;;4992744;28;20462;-42
2020/12/18 02:24:08;;;;;;;;;;;;;;;;;;4992429;28;19913;-44
2020/12/18 02:26:33;;;;;;;;;;;;;;;;;;4992149;28;19909;-43
2020/12/18 02:28:58;;;;;;;;;;;;;;;;;;4992544;28;19916;-44
2020/12/18 02:31:23;;;;;;;;;;;;;;;;;;4992378;28;19916;-45
2020/12/18 02:33:48;;;;;;;;;;;;;;;;;;4992414;28;20001;-44
2020/12/18 02:36:13;;;;;;;;;;;;;;;;;;4992514;28;20008;-45
2020/12/18 02:38:39;;;;;;;;;;;;;;;;;;4992697;28;20007;-44
2020/12/18 02:41:04;;;;;;;;;;;;;;;;;;4983591;28;19925;-45
2020/12/18 02:43:29;;;;;;;;;;;;;;;;;;4986450;28;19957;-42
2020/12/18 02:45:54;;;;;;;;;;;;;;;;;;4992406;28;19947;-43
2020/12/18 02:48:19;;;;;;;;;;;;;;;;;;4992536;28;19910;-44
2020/12/18 02:50:46;;;;;;;;;;;;;;;;;;4992325;28;19917;-44
2020/12/18 02:53:11;;;;;;;;;;;;;;;;;;4992270;28;19961;-44
2020/12/18 02:55:36;;;;;;;;;;;;;;;;;;4992457;28;19909;-43
2020/12/18 02:58:01;;;;;;;;;;;;;;;;;;4992017;28;19964;-44
2020/12/18 03:00:26;;;;;;;;;;;;;;;;;;4992464;28;19917;-43
2020/12/18 03:02:51;;;;;;;;;;;;;;;;;;4992088;28;20005;-44
2020/12/18 03:05:17;;;;;;;;;;;;;;;;;;4995387;28;19914;-44
2020/12/18 03:07:42;;;;;;;;;;;;;;;;;;4996450;28;19914;-44
2020/12/18 03:10:07;;;;;;;;;;;;;;;;;;4996252;28;19910;-43
2020/12/18 03:12:32;;;;;;;;;;;;;;;;;;4995594;28;20303;-43
2020/12/18 03:14:57;;;;;;;;;;;;;;;;;;4996103;28;20279;-43
2020/12/18 03:17:22;;;;;;;;;;;;;;;;;;4996224;28;20546;-44
2020/12/18 03:19:47;;;;;;;;;;;;;;;;;;4996373;28;20382;-44
2020/12/18 03:22:12;;;;;;;;;;;;;;;;;;4995934;28;19917;-46
2020/12/18 03:24:37;;;;;;;;;;;;;;;;;;4996055;28;19921;-43
2020/12/18 03:27:02;;;;;;;;;;;;;;;;;;4995584;28;20022;-44
2020/12/18 03:29:28;;;;;;;;;;;;;;;;;;4995793;28;19988;-42
2020/12/18 03:31:53;;;;;;;;;;;;;;;;;;4994699;28;20123;-44
2020/12/18 03:34:18;;;;;;;;;;;;;;;;;;4995137;28;20394;-43
2020/12/18 03:36:43;;;;;;;;;;;;;;;;;;4996053;28;19996;-44
2020/12/18 03:39:08;;;;;;;;;;;;;;;;;;4995454;28;19914;-44
2020/12/18 03:41:33;;;;;;;;;;;;;;;;;;4995859;28;19960;-45
2020/12/18 03:43:58;;;;;;;;;;;;;;;;;;4995029;28;19913;-43
2020/12/18 03:46:23;;;;;;;;;;;;;;;;;;4995714;28;20000;-44
2020/12/18 03:48:49;;;;;;;;;;;;;;;;;;4995687;28;20339;-41
2020/12/18 03:51:14;;;;;;;;;;;;;;;;;;4995979;28;20241;-43
2020/12/18 03:53:39;;;;;;;;;;;;;;;;;;4995215;28;19916;-43
2020/12/18 03:56:04;;;;;;;;;;;;;;;;;;4995569;28;19932;-44
2020/12/18 03:58:29;;;;;;;;;;;;;;;;;;4995444;28;20334;-45
2020/12/18 04:00:54;;;;;;;;;;;;;;;;;;4995347;28;20272;-43
2020/12/18 04:03:19;;;;;;;;;;;;;;;;;;4994571;28;19917;-44
2020/12/18 04:05:44;;;;;;;;;;;;;;;;;;4995335;28;20386;-44
2020/12/18 04:08:10;;;;;;;;;;;;;;;;;;4995136;28;19916;-44
2020/12/18 04:10:35;;;;;;;;;;;;;;;;;;4995434;28;19922;-44
2020/12/18 04:13:00;;;;;;;;;;;;;;;;;;4994489;28;20065;-44
2020/12/18 04:15:25;;;;;;;;;;;;;;;;;;4995096;28;19910;-44
2020/12/18 04:17:50;;;;;;;;;;;;;;;;;;4995108;28;19941;-44
2020/12/18 04:20:15;;;;;;;;;;;;;;;;;;4995187;28;19917;-43
2020/12/18 04:22:40;;;;;;;;;;;;;;;;;;4995031;28;19953;-43
2020/12/18 04:25:06;;;;;;;;;;;;;;;;;;4995008;28;19941;-45
2020/12/18 04:27:31;;;;;;;;;;;;;;;;;;4994362;28;19914;-43
2020/12/18 04:29:56;;;;;;;;;;;;;;;;;;4994750;28;20004;-44
2020/12/18 04:32:21;;;;;;;;;;;;;;;;;;4994402;28;19937;-43
2020/12/18 04:34:46;;;;;;;;;;;;;;;;;;4994824;28;19993;-44
2020/12/18 04:37:11;;;;;;;;;;;;;;;;;;4994744;28;19960;-44
2020/12/18 04:39:36;;;;;;;;;;;;;;;;;;4994538;28;19941;-44
2020/12/18 04:42:01;;;;;;;;;;;;;;;;;;4993937;28;20372;-43
2020/12/18 04:44:27;;;;;;;;;;;;;;;;;;4994467;28;20284;-44
2020/12/18 04:46:52;;;;;;;;;;;;;;;;;;4994558;28;20331;-43
2020/12/18 04:49:17;;;;;;;;;;;;;;;;;;4994839;28;19917;-44
2020/12/18 04:51:42;;;;;;;;;;;;;;;;;;4994483;28;19910;-46
2020/12/18 04:54:07;;;;;;;;;;;;;;;;;;4994155;28;19937;-44
2020/12/18 04:56:32;;;;;;;;;;;;;;;;;;4994540;28;20426;-43
2020/12/18 04:58:57;;;;;;;;;;;;;;;;;;4993811;28;20371;-44
2020/12/18 05:01:22;;;;;;;;;;;;;;;;;;4994398;28;19917;-45
2020/12/18 05:03:48;;;;;;;;;;;;;;;;;;4993498;28;19910;-43
2020/12/18 05:06:13;;;;;;;;;;;;;;;;;;4994588;28;20355;-44
2020/12/18 05:08:38;;;;;;;;;;;;;;;;;;4994057;28;20359;-42
2020/12/18 05:11:03;;;;;;;;;;;;;;;;;;4994171;28;19917;-44
2020/12/18 05:13:28;;;;;;;;;;;;;;;;;;4993319;28;20340;-44
2020/12/18 05:15:54;;;;;;;;;;;;;;;;;;4993982;28;20463;-44
2020/12/18 05:18:19;;;;;;;;;;;;;;;;;;4993818;28;20056;-45
2020/12/18 05:20:44;;;;;;;;;;;;;;;;;;4993884;28;20004;-44
2020/12/18 05:23:09;;;;;;;;;;;;;;;;;;4993602;28;19996;-44
2020/12/18 05:25:34;;;;;;;;;;;;;;;;;;4993950;28;20045;-44
2020/12/18 05:27:59;;;;;;;;;;;;;;;;;;4992857;28;20048;-44
2020/12/18 05:30:24;;;;;;;;;;;;;;;;;;4993820;28;20017;-44
2020/12/18 05:32:49;;;;;;;;;;;;;;;;;;4993614;28;19989;-43
2020/12/18 05:35:14;;;;;;;;;;;;;;;;;;4993730;28;20012;-44
2020/12/18 05:37:40;;;;;;;;;;;;;;;;;;4993622;28;20001;-44
2020/12/18 05:40:05;;;;;;;;;;;;;;;;;;4993446;28;20350;-44
2020/12/18 05:42:30;;;;;;;;;;;;;;;;;;4992871;28;19910;-44
2020/12/18 05:44:55;;;;;;;;;;;;;;;;;;4993469;28;20013;-44
2020/12/18 05:47:20;;;;;;;;;;;;;;;;;;4993550;28;20064;-44
2020/12/18 05:49:45;;;;;;;;;;;;;;;;;;4993464;28;20354;-43
2020/12/18 05:52:10;;;;;;;;;;;;;;;;;;4993397;28;20004;-43
2020/12/18 05:54:35;;;;;;;;;;;;;;;;;;4993413;28;19910;-46
2020/12/18 05:57:00;;;;;;;;;;;;;;;;;;4992782;28;19909;-43
2020/12/18 05:59:26;;;;;;;;;;;;;;;;;;4993235;28;19965;-45
2020/12/18 06:01:51;;;;;;;;;;;;;;;;;;4992962;28;19929;-42
2020/12/18 06:04:16;;;;;;;;;;;;;;;;;;4992376;28;20316;-44
2020/12/18 06:06:41;;;;;;;;;;;;;;;;;;4993157;28;20005;-44
2020/12/18 06:09:06;;;;;;;;;;;;;;;;;;4992901;28;19909;-43
2020/12/18 06:11:31;;;;;;;;;;;;;;;;;;4993376;28;19921;-44
2020/12/18 06:13:56;;;;;;;;;;;;;;;;;;4995671;28;19917;-44
2020/12/18 06:16:21;;;;;;;;;;;;;;;;;;4993687;28;19937;-43
2020/12/18 06:18:47;;;;;;;;;;;;;;;;;;4993329;28;19910;-44
2020/12/18 06:21:12;;;;;;;;;;;;;;;;;;4993431;28;19913;-44
2020/12/18 06:23:37;;;;;;;;;;;;;;;;;;4993159;28;20000;-44
2020/12/18 06:26:02;;;;;;;;;;;;;;;;;;4993189;28;19914;-45
2020/12/18 06:28:27;;;;;;;;;;;;;;;;;;4993249;28;19910;-44
2020/12/18 06:30:52;;;;;;;;;;;;;;;;;;4993023;28;19909;-45
2020/12/18 06:33:17;;;;;;;;;;;;;;;;;;4991547;28;19925;-44
2020/12/18 06:35:42;;;;;;;;;;;;;;;;;;4989575;28;19948;-43
2020/12/18 06:38:07;;;;;;;;;;;;;;;;;;4999306;28;19910;-42
2020/12/18 06:40:33;;;;;;;;;;;;;;;;;;5006926;28;20339;-43
2020/12/18 06:42:58;;;;;;;;;;;;;;;;;;4992256;28;20356;-43
2020/12/18 06:45:23;;;;;;;;;;;;;;;;;;4999101;28;19953;-43
2020/12/18 06:47:48;;;;;;;;;;;;;;;;;;4992465;28;20295;-44
2020/12/18 06:50:16;;;;;;;;;;;;;;;;;;4992406;28;20012;-42
2020/12/18 06:52:41;;;;;;;;;;;;;;;;;;4992147;28;20388;-44
2020/12/18 06:55:07;;;;;;;;;;;;;;;;;;5012053;28;20366;-44
2020/12/18 06:57:32;;;;;;;;;;;;;;;;;;5012073;28;20371;-43
2020/12/18 06:59:57;;;;;;;;;;;;;;;;;;5011633;28;19955;-44
2020/12/18 07:02:22;;;;;;;;;;;;;;;;;;5011854;28;19920;-43
2020/12/18 07:04:47;;;;;;;;;;;;;;;;;;5010630;28;20012;-43
2020/12/18 07:07:12;;;;;;;;;;;;;;;;;;5010516;28;19996;-43
2020/12/18 07:09:37;;;;;;;;;;;;;;;;;;5011725;28;20000;-43
2020/12/18 07:12:02;;;;;;;;;;;;;;;;;;4993695;28;19997;-43
2020/12/18 07:14:28;;;;;;;;;;;;;;;;;;4992116;28;20349;-42
2020/12/18 07:16:53;;;;;;;;;;;;;;;;;;4991989;28;19910;-43
2020/12/18 07:19:18;;;;;;;;;;;;;;;;;;4992082;28;19917;-43
2020/12/18 07:21:43;;;;;;;;;;;;;;;;;;4992607;28;19910;-44
2020/12/18 07:24:08;;;;;;;;;;;;;;;;;;4991656;28;20434;-41
2020/12/18 07:26:33;;;;;;;;;;;;;;;;;;4992136;28;19993;-43
2020/12/18 07:28:59;;;;;;;;;;;;;;;;;;4992022;28;19909;-43
2020/12/18 07:31:24;;;;;;;;;;;;;;;;;;4991856;28;19910;-43
2020/12/18 07:33:49;;;;;;;;;;;;;;;;;;4991614;28;20287;-42
2020/12/18 07:36:14;;;;;;;;;;;;;;;;;;4992074;28;19956;-43
2020/12/18 07:38:40;;;;;;;;;;;;;;;;;;4992278;28;20379;-44
2020/12/18 07:41:06;;;;;;;;;;;;;;;;;;4991857;28;19925;-42
2020/12/18 07:43:31;;;;;;;;;;;;;;;;;;4991517;28;20005;-44
2020/12/18 07:45:56;;;;;;;;;;;;;;;;;;4997832;28;20285;-42
2020/12/18 07:48:22;;;;;;;;;;;;;;;;;;5011244;28;19972;-44
2020/12/18 07:50:47;;;;;;;;;;;;;;;;;;5012006;28;19999;-43
2020/12/18 07:53:12;;;;;;;;;;;;;;;;;;5015019;28;20000;-41
2020/12/18 07:55:38;;;;;;;;;;;;;;;;;;5015350;28;20047;-43
2020/12/18 07:58:03;;;;;;;;;;;;;;;;;;5015455;28;19992;-43
2020/12/18 08:00:28;;;;;;;;;;;;;;;;;;5014926;28;19988;-43
2020/12/18 08:02:53;;;;;;;;;;;;;;;;;;5014817;28;20386;-43
2020/12/18 08:05:18;;;;;;;;;;;;;;;;;;5015348;28;19956;-43
2020/12/18 08:07:43;;;;;;;;;;;;;;;;;;5015420;28;19910;-42
2020/12/18 08:10:08;;;;;;;;;;;;;;;;;;5015449;28;19918;-43
2020/12/18 08:12:34;;;;;;;;;;;;;;;;;;5015238;28;19913;-43
2020/12/18 08:14:59;;;;;;;;;;;;;;;;;;5015265;28;19932;-44
2020/12/18 08:17:24;;;;;;;;;;;;;;;;;;5014940;28;19941;-44
2020/12/18 08:19:49;;;;;;;;;;;;;;;;;;5013250;28;19949;-43
2020/12/18 08:22:14;;;;;;;;;;;;;;;;;;5014761;28;19913;-47
2020/12/18 08:24:39;;;;;;;;;;;;;;;;;;5014798;28;20283;-43
2020/12/18 08:27:04;;;;;;;;;;;;;;;;;;5014652;28;20326;-43
2020/12/18 08:29:31;;;;;;;;;;;;;;;;;;5014739;28;19914;-42
2020/12/18 08:31:56;;;;;;;;;;;;;;;;;;5014561;28;20374;-44
2020/12/18 08:34:21;;;;;;;;;;;;;;;;;;5014662;28;20298;-42
2020/12/18 08:36:46;;;;;;;;;;;;;;;;;;5014377;28;20383;-44
2020/12/18 08:39:11;;;;;;;;;;;;;;;;;;5014684;28;19914;-43
2020/12/18 08:41:36;;;;;;;;;;;;;;;;;;5014822;28;20298;-44
2020/12/18 08:44:01;;;;;;;;;;;;;;;;;;5014071;28;19925;-43
2020/12/18 08:46:27;;;;;;;;;;;;;;;;;;5014229;28;20330;-43
2020/12/18 08:48:52;;;;;;;;;;;;;;;;;;5014329;28;20285;-43
2020/12/18 08:51:17;;;;;;;;;;;;;;;;;;5000979;28;20401;-43
2020/12/18 08:53:42;;;;;;;;;;;;;;;;;;4994256;28;20430;-43
2020/12/18 08:56:07;;;;;;;;;;;;;;;;;;4994181;28;20001;-42
2020/12/18 08:58:35;;;;;;;;;;;;;;;;;;4994548;28;19909;-44
2020/12/18 09:01:01;;;;;;;;;;;;;;;;;;4993683;28;19909;-43
2020/12/18 09:03:26;;;;;;;;;;;;;;;;;;4993316;28;20012;-42
2020/12/18 09:05:51;;;;;;;;;;;;;;;;;;4994220;28;19968;-43
2020/12/18 09:08:16;;;;;;;;;;;;;;;;;;4994491;28;19956;-43
2020/12/18 09:10:41;;;;;;;;;;;;;;;;;;4993612;28;20330;-43
2020/12/18 09:13:07;;;;;;;;;;;;;;;;;;4993624;28;19910;-45
2020/12/18 09:15:32;;;;;;;;;;;;;;;;;;4993431;28;19913;-43
2020/12/18 09:17:57;;;;;;;;;;;;;;;;;;4994252;28;20433;-44
2020/12/18 09:20:22;;;;;;;;;;;;;;;;;;5054086;22;19943;-39
2020/12/18 09:22:47;;;;;;;;;;;;;;;;;;5010564;28;20000;-38
2020/12/18 09:25:12;;;;;;;;;;;;;;;;;;5019397;28;20363;-37
2020/12/18 09:27:37;;;;;;;;;;;;;;;;;;5031125;28;19913;-37
2020/12/18 09:30:06;;;;;;;;;;;;;;;;;;5031155;28;19932;-37
2020/12/18 09:32:31;;;;;;;;;;;;;;;;;;5030105;28;19909;-41
2020/12/18 09:34:56;;;;;;;;;;;;;;;;;;5031207;28;19913;-39
2020/12/18 09:37:21;;;;;;;;;;;;;;;;;;5031380;28;20001;-37
2020/12/18 09:39:47;;;;;;;;;;;;;;;;;;5030981;28;20404;-37
2020/12/18 09:42:12;;;;;;;;;;;;;;;;;;5030198;28;19909;-38
2020/12/18 09:44:37;;;;;;;;;;;;;;;;;;5025622;28;19917;-41
2020/12/18 09:47:02;;;;;;;;;;;;;;;;;;5010984;28;20343;-39
2020/12/18 09:49:27;;;;;;;;;;;;;;;;;;5010832;28;19936;-39
2020/12/18 09:51:52;;;;;;;;;;;;;;;;;;5011061;28;19909;-37
2020/12/18 09:54:17;;;;;;;;;;;;;;;;;;5010617;28;20069;-38
2020/12/18 09:56:42;;;;;;;;;;;;;;;;;;5010697;28;19996;-37
2020/12/18 09:59:07;;;;;;;;;;;;;;;;;;5016708;28;20088;-38
2020/12/18 10:01:33;;;;;;;;;;;;;;;;;;5030543;28;19996;-37
2020/12/18 10:03:58;;;;;;;;;;;;;;;;;;5029810;28;20004;-37
2020/12/18 10:06:23;;;;;;;;;;;;;;;;;;5030386;28;19909;-37
2020/12/18 10:08:48;;;;;;;;;;;;;;;;;;5030005;28;20410;-40
2020/12/18 10:11:14;;;;;;;;;;;;;;;;;;5030570;28;19916;-39
2020/12/18 10:13:40;;;;;;;;;;;;;;;;;;5029355;28;19916;-38
2020/12/18 10:16:05;;;;;;;;;;;;;;;;;;5030328;28;19917;-37
2020/12/18 10:18:30;;;;;;;;;;;;;;;;;;5030130;28;19913;-38
2020/12/18 10:20:55;;;;;;;;;;;;;;;;;;5030244;28;19917;-38
2020/12/18 10:23:20;;;;;;;;;;;;;;;;;;5029644;28;20447;-38
2020/12/18 10:25:45;;;;;;;;;;;;;;;;;;5029854;28;20306;-37
2020/12/18 10:28:10;;;;;;;;;;;;;;;;;;5030378;28;20384;-38
2020/12/18 10:30:37;;;;;;;;;;;;;;;;;;5029388;28;20478;-37
2020/12/18 10:33:02;;;;;;;;;;;;;;;;;;5029249;28;20418;-40
2020/12/18 10:35:27;;;;;;;;;;;;;;;;;;5030002;28;20418;-39
2020/12/18 10:37:54;;;;;;;;;;;;;;;;;;5030314;28;19916;-39
2020/12/18 10:40:19;;;;;;;;;;;;;;;;;;5029032;28;20452;-37
2020/12/18 10:42:44;;;;;;;;;;;;;;;;;;5029263;28;20410;-37
2020/12/18 10:45:10;;;;;;;;;;;;;;;;;;5019766;28;19968;-37
2020/12/18 10:47:35;;;;;;;;;;;;;;;;;;5010832;28;19961;-39
2020/12/18 10:50:00;;;;;;;;;;;;;;;;;;5010204;28;20161;-38
2020/12/18 10:52:25;;;;;;;;;;;;;;;;;;5009427;28;20004;-39
2020/12/18 10:54:50;;;;;;;;;;;;;;;;;;5009365;28;20000;-41
2020/12/18 10:57:15;;;;;;;;;;;;;;;;;;5010272;28;19909;-37
2020/12/18 10:59:40;;;;;;;;;;;;;;;;;;5020458;28;20362;-39
2020/12/18 11:02:06;;;;;;;;;;;;;;;;;;5028891;28;20362;-37
2020/12/18 11:04:31;;;;;;;;;;;;;;;;;;5029628;28;19956;-41
2020/12/18 11:06:56;;;;;;;;;;;;;;;;;;5029861;28;19952;-38
2020/12/18 11:09:21;;;;;;;;;;;;;;;;;;5029600;28;19917;-39
2020/12/18 11:11:46;;;;;;;;;;;;;;;;;;5029378;28;20011;-38
2020/12/18 11:14:11;;;;;;;;;;;;;;;;;;5028999;28;20412;-38
2020/12/18 11:16:37;;;;;;;;;;;;;;;;;;5029459;28;19909;-38
2020/12/18 11:19:02;;;;;;;;;;;;;;;;;;5029907;28;19909;-38
2020/12/18 11:21:28;;;;;;;;;;;;;;;;;;5029563;28;19939;-37
2020/12/18 11:23:53;;;;;;;;;;;;;;;;;;5029004;28;19917;-39
2020/12/18 11:26:18;;;;;;;;;;;;;;;;;;5032888;28;19920;-37
2020/12/18 11:28:43;;;;;;;;;;;;;;;;;;5033505;28;19913;-38
2020/12/18 11:31:08;;;;;;;;;;;;;;;;;;5033667;28;19914;-38
2020/12/18 11:33:34;;;;;;;;;;;;;;;;;;5032961;28;19909;-37
2020/12/18 11:35:59;;;;;;;;;;;;;;;;;;5033047;28;19916;-38
2020/12/18 11:38:24;;;;;;;;;;;;;;;;;;5033364;28;19909;-39
2020/12/18 11:40:49;;;;;;;;;;;;;;;;;;5033466;28;20337;-39
2020/12/18 11:43:14;;;;;;;;;;;;;;;;;;5032494;28;19910;-40
2020/12/18 11:45:39;;;;;;;;;;;;;;;;;;5018965;28;19924;-41
2020/12/18 11:48:04;;;;;;;;;;;;;;;;;;5013586;28;19915;-38
2020/12/18 11:50:29;;;;;;;;;;;;;;;;;;5014812;28;20001;-39
2020/12/18 11:52:55;;;;;;;;;;;;;;;;;;5017331;28;19909;-37
2020/12/18 11:55:20;;;;;;;;;;;;;;;;;;5017869;28;19914;-39
2020/12/18 11:57:45;;;;;;;;;;;;;;;;;;5017524;28;19909;-40
2020/12/18 12:00:10;;;;;;;;;;;;;;;;;;5028462;28;19959;-38
2020/12/18 12:02:35;;;;;;;;;;;;;;;;;;5032470;28;19913;-40
2020/12/18 12:05:01;;;;;;;;;;;;;;;;;;5032793;28;20474;-37
2020/12/18 12:07:26;;;;;;;;;;;;;;;;;;5033049;28;19909;-41
